EJM2 MYAM-KPBI
Flight info
| Callsign | EJM2 |
|---|---|
| Flight time | N/A |
| Altitude | 20000 |
| Route | TOONI2 ZFP BR21V PBI |
| Aircraft | GLF6/M-SFGHIRWXY/S |
Departure
| Time | 2026-05-07 21:03 |
|---|---|
| Airport | Leonard M. Thompson International Airport (MYAM) |
Arrival
| Time | N/A |
|---|---|
| Airport | Palm Beach International Airport (KPBI) |
| Time | Latitude | Longitude | Altitude | Speed | Heading |
|---|---|---|---|---|---|
| 2026-05-07 20:44 | 26.51330 | -77.08600 | 16 ft | 0 kts | 90° |
| 2026-05-07 20:45 | 26.51333 | -77.08582 | 16 ft | 0 kts | 90° |
| 2026-05-07 20:45 | 26.51325 | -77.08444 | 16 ft | 0 kts | 90° |
| 2026-05-07 21:00 | 26.51310 | -77.08411 | 17 ft | 12 kts | 133° |
| 2026-05-07 21:00 | 26.51207 | -77.08372 | 17 ft | 15 kts | 171° |
| 2026-05-07 21:00 | 26.51143 | -77.08380 | 17 ft | 10 kts | 243° |
| 2026-05-07 21:01 | 26.51138 | -77.08506 | 17 ft | 23 kts | 268° |
| 2026-05-07 21:01 | 26.51132 | -77.08734 | 15 ft | 33 kts | 269° |
| 2026-05-07 21:01 | 26.51125 | -77.09005 | 14 ft | 34 kts | 267° |
| 2026-05-07 21:01 | 26.51119 | -77.09263 | 14 ft | 32 kts | 268° |
| 2026-05-07 21:02 | 26.51114 | -77.09412 | 14 ft | 9 kts | 268° |
| 2026-05-07 21:02 | 26.51066 | -77.09477 | 14 ft | 17 kts | 175° |
| 2026-05-07 21:02 | 26.50988 | -77.09440 | 14 ft | 12 kts | 95° |
| 2026-05-07 21:02 | 26.50991 | -77.09405 | 14 ft | 7 kts | 84° |
| 2026-05-07 21:03 | 26.50997 | -77.09144 | 14 ft | 84 kts | 88° |
| 2026-05-07 21:03 | 26.51030 | -77.08106 | 386 ft | 161 kts | 87° |
| 2026-05-07 21:03 | 26.51049 | -77.07692 | 732 ft | 169 kts | 87° |
| 2026-05-07 21:04 | 26.51089 | -77.06918 | 1418 ft | 179 kts | 87° |
| 2026-05-07 21:04 | 26.51167 | -77.05433 | 1889 ft | 216 kts | 87° |
| 2026-05-07 21:04 | 26.51080 | -77.03758 | 2020 ft | 215 kts | 114° |
| 2026-05-07 21:05 | 26.50090 | -77.02636 | 2695 ft | 210 kts | 159° |
| 2026-05-07 21:05 | 26.48661 | -77.02281 | 3377 ft | 212 kts | 174° |
| 2026-05-07 21:05 | 26.47195 | -77.02103 | 4028 ft | 215 kts | 176° |
| 2026-05-07 21:05 | 26.45709 | -77.01971 | 4607 ft | 217 kts | 178° |
| 2026-05-07 21:06 | 26.44196 | -77.01870 | 5189 ft | 218 kts | 178° |
| 2026-05-07 21:06 | 26.42682 | -77.01790 | 5764 ft | 220 kts | 179° |
| 2026-05-07 21:06 | 26.41140 | -77.01720 | 6342 ft | 223 kts | 179° |
| 2026-05-07 21:06 | 26.39584 | -77.01659 | 6957 ft | 226 kts | 179° |
| 2026-05-07 21:07 | 26.38183 | -77.01608 | 7507 ft | 230 kts | 179° |
| 2026-05-07 21:07 | 26.37025 | -77.01567 | 7956 ft | 233 kts | 179° |
| 2026-05-07 21:07 | 26.35870 | -77.01527 | 8396 ft | 236 kts | 179° |
| 2026-05-07 21:07 | 26.34221 | -77.01473 | 9016 ft | 239 kts | 179° |
| 2026-05-07 21:08 | 26.32556 | -77.01419 | 9632 ft | 242 kts | 179° |
| 2026-05-07 21:08 | 26.30860 | -77.01382 | 10247 ft | 248 kts | 185° |
| 2026-05-07 21:08 | 26.29203 | -77.02129 | 10976 ft | 275 kts | 222° |
| 2026-05-07 21:08 | 26.28127 | -77.03940 | 11736 ft | 298 kts | 255° |
| 2026-05-07 21:09 | 26.28049 | -77.06288 | 12490 ft | 321 kts | 282° |
| 2026-05-07 21:09 | 26.28555 | -77.08824 | 13254 ft | 346 kts | 283° |
| 2026-05-07 21:09 | 26.29063 | -77.11512 | 13994 ft | 369 kts | 283° |
| 2026-05-07 21:09 | 26.29574 | -77.14357 | 14722 ft | 375 kts | 283° |
| 2026-05-07 21:10 | 26.30068 | -77.17178 | 15433 ft | 373 kts | 283° |
| 2026-05-07 21:10 | 26.30555 | -77.19988 | 16143 ft | 373 kts | 283° |
| 2026-05-07 21:10 | 26.31042 | -77.22808 | 16860 ft | 375 kts | 283° |
| 2026-05-07 21:10 | 26.31538 | -77.25685 | 17583 ft | 378 kts | 283° |
| 2026-05-07 21:11 | 26.32031 | -77.28548 | 18290 ft | 381 kts | 283° |
| 2026-05-07 21:11 | 26.32529 | -77.31449 | 19001 ft | 383 kts | 283° |
| 2026-05-07 21:11 | 26.33535 | -77.37325 | 19969 ft | 392 kts | 283° |
| 2026-05-07 21:12 | 26.34044 | -77.40300 | 20004 ft | 391 kts | 282° |
| 2026-05-07 21:12 | 26.34545 | -77.43243 | 20004 ft | 388 kts | 283° |
| 2026-05-07 21:12 | 26.35047 | -77.46182 | 20004 ft | 387 kts | 282° |
| 2026-05-07 21:12 | 26.35552 | -77.49154 | 20005 ft | 386 kts | 283° |
| 2026-05-07 21:13 | 26.36050 | -77.52077 | 20005 ft | 387 kts | 283° |
| 2026-05-07 21:13 | 26.36549 | -77.55019 | 20005 ft | 387 kts | 283° |
| 2026-05-07 21:13 | 26.37047 | -77.57956 | 20004 ft | 387 kts | 283° |
| 2026-05-07 21:13 | 26.37548 | -77.60908 | 20006 ft | 387 kts | 283° |
| 2026-05-07 21:14 | 26.38046 | -77.63850 | 20004 ft | 387 kts | 282° |
| 2026-05-07 21:14 | 26.38544 | -77.66801 | 20009 ft | 387 kts | 282° |
| 2026-05-07 21:14 | 26.39045 | -77.69771 | 20009 ft | 388 kts | 282° |
| 2026-05-07 21:14 | 26.39539 | -77.72701 | 20009 ft | 388 kts | 282° |
| 2026-05-07 21:15 | 26.40037 | -77.75661 | 20008 ft | 388 kts | 282° |
| 2026-05-07 21:15 | 26.40534 | -77.78616 | 20008 ft | 388 kts | 282° |
| 2026-05-07 21:15 | 26.41026 | -77.81549 | 20008 ft | 387 kts | 282° |
| 2026-05-07 21:15 | 26.41518 | -77.84486 | 20008 ft | 387 kts | 282° |
| 2026-05-07 21:16 | 26.42012 | -77.87431 | 20008 ft | 387 kts | 282° |
| 2026-05-07 21:16 | 26.42507 | -77.90395 | 20008 ft | 387 kts | 282° |
| 2026-05-07 21:16 | 26.42995 | -77.93318 | 20007 ft | 387 kts | 282° |
| 2026-05-07 21:16 | 26.43491 | -77.96294 | 20008 ft | 387 kts | 282° |
| 2026-05-07 21:17 | 26.43981 | -77.99234 | 20007 ft | 387 kts | 282° |
| 2026-05-07 21:17 | 26.44467 | -78.02159 | 20007 ft | 387 kts | 282° |
| 2026-05-07 21:17 | 26.44955 | -78.05097 | 20007 ft | 386 kts | 282° |
| 2026-05-07 21:17 | 26.45446 | -78.08056 | 20006 ft | 386 kts | 282° |
| 2026-05-07 21:18 | 26.45930 | -78.10973 | 20005 ft | 386 kts | 282° |
| 2026-05-07 21:18 | 26.46419 | -78.13928 | 20006 ft | 386 kts | 282° |
| 2026-05-07 21:18 | 26.46906 | -78.16878 | 20005 ft | 387 kts | 282° |
| 2026-05-07 21:18 | 26.47393 | -78.19827 | 20007 ft | 386 kts | 282° |
| 2026-05-07 21:19 | 26.47874 | -78.22752 | 20005 ft | 386 kts | 282° |
| 2026-05-07 21:19 | 26.48357 | -78.25686 | 20005 ft | 387 kts | 282° |
| 2026-05-07 21:19 | 26.48842 | -78.28635 | 20004 ft | 387 kts | 282° |
| 2026-05-07 21:19 | 26.49330 | -78.31609 | 20003 ft | 387 kts | 282° |
| 2026-05-07 21:20 | 26.49809 | -78.34528 | 20002 ft | 386 kts | 282° |
| 2026-05-07 21:20 | 26.50290 | -78.37469 | 19998 ft | 386 kts | 282° |
| 2026-05-07 21:20 | 26.50771 | -78.40408 | 19996 ft | 385 kts | 282° |
| 2026-05-07 21:20 | 26.51252 | -78.43355 | 19996 ft | 386 kts | 282° |
| 2026-05-07 21:21 | 26.51731 | -78.46295 | 19998 ft | 386 kts | 282° |
| 2026-05-07 21:21 | 26.52214 | -78.49263 | 19994 ft | 386 kts | 282° |
| 2026-05-07 21:21 | 26.52689 | -78.52186 | 19994 ft | 385 kts | 282° |
| 2026-05-07 21:21 | 26.53167 | -78.55127 | 19995 ft | 386 kts | 282° |
| 2026-05-07 21:22 | 26.53646 | -78.58076 | 19989 ft | 385 kts | 282° |
| 2026-05-07 21:22 | 26.54124 | -78.61029 | 19985 ft | 386 kts | 282° |
| 2026-05-07 21:22 | 26.54597 | -78.63959 | 19983 ft | 385 kts | 282° |
| 2026-05-07 21:22 | 26.55069 | -78.66881 | 20002 ft | 386 kts | 281° |
| 2026-05-07 21:23 | 26.55592 | -78.69857 | 19995 ft | 385 kts | 285° |
| 2026-05-07 21:23 | 26.56479 | -78.72703 | 20009 ft | 384 kts | 290° |
| 2026-05-07 21:23 | 26.57405 | -78.75510 | 20009 ft | 385 kts | 290° |
| 2026-05-07 21:23 | 26.58318 | -78.78298 | 19998 ft | 383 kts | 290° |
| 2026-05-07 21:24 | 26.59229 | -78.81086 | 20006 ft | 384 kts | 290° |
| 2026-05-07 21:24 | 26.60139 | -78.83877 | 20005 ft | 384 kts | 290° |
| 2026-05-07 21:24 | 26.61049 | -78.86673 | 20004 ft | 383 kts | 290° |
| 2026-05-07 21:24 | 26.61966 | -78.89489 | 19989 ft | 384 kts | 290° |
| 2026-05-07 21:25 | 26.62879 | -78.92299 | 19990 ft | 383 kts | 290° |
| 2026-05-07 21:25 | 26.63781 | -78.95075 | 19988 ft | 384 kts | 290° |
| 2026-05-07 21:25 | 26.64698 | -78.97901 | 19986 ft | 384 kts | 290° |
| 2026-05-07 21:25 | 26.65426 | -79.00146 | 19986 ft | 383 kts | 290° |
| 2026-05-07 21:26 | 26.66334 | -79.02947 | 19984 ft | 384 kts | 290° |
| 2026-05-07 21:26 | 26.67234 | -79.05727 | 19986 ft | 383 kts | 290° |
| 2026-05-07 21:26 | 26.68150 | -79.08554 | 19984 ft | 384 kts | 290° |
| 2026-05-07 21:26 | 26.69057 | -79.11356 | 19965 ft | 385 kts | 290° |
| 2026-05-07 21:27 | 26.69969 | -79.14175 | 19425 ft | 387 kts | 290° |
| 2026-05-07 21:27 | 26.70868 | -79.16957 | 18933 ft | 382 kts | 290° |
| 2026-05-07 21:27 | 26.71768 | -79.19743 | 18456 ft | 378 kts | 290° |
| 2026-05-07 21:27 | 26.72652 | -79.22484 | 17983 ft | 377 kts | 290° |
| 2026-05-07 21:28 | 26.73545 | -79.25250 | 17504 ft | 375 kts | 290° |
| 2026-05-07 21:28 | 26.74420 | -79.27968 | 17025 ft | 374 kts | 290° |
| 2026-05-07 21:28 | 26.75304 | -79.30711 | 16540 ft | 373 kts | 290° |
| 2026-05-07 21:28 | 26.76172 | -79.33409 | 16063 ft | 370 kts | 290° |
| 2026-05-07 21:29 | 26.77035 | -79.36092 | 15586 ft | 368 kts | 290° |
| 2026-05-07 21:29 | 26.77906 | -79.38803 | 15099 ft | 367 kts | 290° |
| 2026-05-07 21:29 | 26.78766 | -79.41481 | 14617 ft | 366 kts | 290° |
| 2026-05-07 21:29 | 26.79614 | -79.44125 | 14142 ft | 364 kts | 290° |
| 2026-05-07 21:30 | 26.80471 | -79.46796 | 13661 ft | 362 kts | 290° |
| 2026-05-07 21:30 | 26.81313 | -79.49425 | 13181 ft | 362 kts | 290° |
| 2026-05-07 21:30 | 26.82162 | -79.52078 | 12697 ft | 360 kts | 290° |
| 2026-05-07 21:30 | 26.83004 | -79.54709 | 12216 ft | 357 kts | 290° |
| 2026-05-07 21:31 | 26.83832 | -79.57301 | 11736 ft | 355 kts | 290° |
| 2026-05-07 21:31 | 26.84650 | -79.59888 | 11252 ft | 353 kts | 288° |
| 2026-05-07 21:31 | 26.84875 | -79.62590 | 10751 ft | 349 kts | 265° |
| 2026-05-07 21:31 | 26.84450 | -79.65224 | 10208 ft | 340 kts | 253° |
| 2026-05-07 21:32 | 26.83649 | -79.67683 | 9622 ft | 335 kts | 249° |
| 2026-05-07 21:32 | 26.82785 | -79.70122 | 9020 ft | 331 kts | 248° |
| 2026-05-07 21:32 | 26.81924 | -79.72477 | 8429 ft | 328 kts | 248° |
| 2026-05-07 21:32 | 26.81057 | -79.74815 | 7834 ft | 324 kts | 248° |
| 2026-05-07 21:33 | 26.80190 | -79.77140 | 7233 ft | 321 kts | 248° |
| 2026-05-07 21:33 | 26.79393 | -79.79264 | 6497 ft | 284 kts | 248° |
| 2026-05-07 21:33 | 26.78643 | -79.81267 | 6108 ft | 279 kts | 248° |
| 2026-05-07 21:33 | 26.77888 | -79.83279 | 5597 ft | 280 kts | 248° |
| 2026-05-07 21:34 | 26.77133 | -79.85290 | 5088 ft | 281 kts | 248° |
| 2026-05-07 21:34 | 26.76376 | -79.87303 | 4634 ft | 280 kts | 248° |
| 2026-05-07 21:34 | 26.75624 | -79.89304 | 4151 ft | 278 kts | 248° |
| 2026-05-07 21:34 | 26.75096 | -79.90707 | 3813 ft | 277 kts | 248° |
| 2026-05-07 21:35 | 26.74350 | -79.92687 | 3390 ft | 275 kts | 248° |
| 2026-05-07 21:35 | 26.73549 | -79.94607 | 2996 ft | 270 kts | 237° |
| 2026-05-07 21:35 | 26.72570 | -79.96378 | 2618 ft | 266 kts | 245° |
| 2026-05-07 21:35 | 26.71819 | -79.98194 | 2488 ft | 253 kts | 244° |